Time;durP1;ratioP1;P1;durP2;ratioP2;P2;SDS_P1;SDS_P2;PMS_P1;PMS_P2;Temp;Humidity;BMP_temperature;BMP_pressure;BME280_temperature;BME280_humidity;BME280_pressure;Samples;Min_cycle;Max_cycle;Signal;HPM_P1;HPM_P2
2024/01/03 00:01:37;;;;;;;0.30;0.30;;;8.60;99.90;;;;;;5027965;28;20638;-73
2024/01/03 00:04:04;;;;;;;0.80;0.23;;;8.50;99.90;;;;;;5028239;28;20635;-73
2024/01/03 00:06:34;;;;;;;1.13;0.50;;;8.50;99.90;;;;;;5050323;28;20637;-73
2024/01/03 00:09:02;;;;;;;0.30;0.20;;;8.50;99.90;;;;;;5050343;27;20658;-73
2024/01/03 00:11:30;;;;;;;0.83;0.30;;;8.50;99.90;;;;;;5045876;28;20667;-73
2024/01/03 00:14:06;;;;;;;0.40;0.33;;;8.50;99.90;;;;;;5040926;27;20622;-73
2024/01/03 00:16:34;;;;;;;0.40;0.33;;;8.50;99.90;;;;;;5056094;28;20628;-73
2024/01/03 00:19:02;;;;;;;0.40;0.20;;;8.50;99.90;;;;;;5052747;28;20640;-73
2024/01/03 00:21:29;;;;;;;0.77;0.50;;;8.50;99.90;;;;;;5049325;27;20690;-73
2024/01/03 00:23:58;;;;;;;0.50;0.40;;;8.50;99.90;;;;;;5056253;28;20621;-73
2024/01/03 00:26:28;;;;;;;0.50;0.43;;;8.50;99.90;;;;;;5052702;28;20622;-73
2024/01/03 00:28:56;;;;;;;0.83;0.50;;;8.60;99.90;;;;;;5051194;28;20625;-73
2024/01/03 00:31:38;;;;;;;1.90;0.57;;;8.60;99.90;;;;;;5052316;28;20676;-73
2024/01/03 00:34:09;;;;;;;0.83;0.30;;;8.50;99.90;;;;;;5050183;28;21137;-73
2024/01/03 00:36:36;;;;;;;1.23;0.50;;;8.50;99.90;;;;;;5049869;28;20633;-73
2024/01/03 00:39:03;;;;;;;0.67;0.37;;;8.60;99.90;;;;;;5049548;28;20639;-73
2024/01/03 00:41:31;;;;;;;0.43;0.43;;;8.50;99.90;;;;;;5041340;28;20631;-73
2024/01/03 00:43:58;;;;;;;1.33;0.60;;;8.60;99.90;;;;;;5046799;28;20627;-73
2024/01/03 00:46:25;;;;;;;0.97;0.40;;;8.60;99.90;;;;;;5046378;28;20640;-73
2024/01/03 00:48:51;;;;;;;0.57;0.43;;;8.60;99.90;;;;;;5051098;27;21000;-73
2024/01/03 00:51:18;;;;;;;0.80;0.80;;;8.60;99.90;;;;;;5055769;27;20665;-73
2024/01/03 00:53:45;;;;;;;0.50;0.30;;;8.70;99.90;;;;;;5036651;28;20729;-73
2024/01/03 00:56:12;;;;;;;0.53;0.30;;;8.70;99.90;;;;;;5045245;28;20987;-73
2024/01/03 00:58:41;;;;;;;0.83;0.67;;;8.70;99.90;;;;;;5035976;28;20652;-72
2024/01/03 01:01:08;;;;;;;0.77;0.77;;;8.60;99.90;;;;;;5042939;28;20626;-72
2024/01/03 01:03:34;;;;;;;0.60;0.60;;;8.50;99.90;;;;;;5032669;27;20637;-72
2024/01/03 01:06:01;;;;;;;0.70;0.70;;;8.50;99.90;;;;;;5061078;28;21090;-72
2024/01/03 01:08:28;;;;;;;0.30;0.30;;;8.50;99.90;;;;;;5049992;28;20621;-73
2024/01/03 01:10:55;;;;;;;1.07;0.40;;;8.40;99.90;;;;;;5057599;28;20669;-73
2024/01/03 01:13:22;;;;;;;0.40;0.30;;;8.40;99.90;;;;;;5046977;28;20637;-73
2024/01/03 01:15:50;;;;;;;0.80;0.70;;;8.30;99.90;;;;;;5039492;28;20634;-73
2024/01/03 01:18:16;;;;;;;1.87;0.43;;;8.20;99.90;;;;;;5042485;28;20623;-73
2024/01/03 01:20:43;;;;;;;1.03;0.30;;;8.20;99.90;;;;;;5054953;28;20627;-73
2024/01/03 01:23:10;;;;;;;2.30;0.30;;;8.10;99.90;;;;;;5045880;28;20635;-73
2024/01/03 01:25:37;;;;;;;0.40;0.30;;;8.10;99.90;;;;;;5054667;28;20730;-73
2024/01/03 01:28:04;;;;;;;0.40;0.30;;;8.00;99.90;;;;;;5052534;28;20627;-72
2024/01/03 01:30:31;;;;;;;0.50;0.40;;;8.00;99.90;;;;;;5050246;27;20674;-73
2024/01/03 01:32:59;;;;;;;1.00;0.60;;;8.00;99.90;;;;;;5052186;28;20631;-73
2024/01/03 01:35:26;;;;;;;0.70;0.40;;;8.00;99.90;;;;;;5042100;28;20737;-73
2024/01/03 01:37:52;;;;;;;0.40;0.40;;;8.00;99.90;;;;;;5052083;28;20630;-73
2024/01/03 01:40:19;;;;;;;0.73;0.73;;;8.10;99.90;;;;;;5047317;28;21556;-72
2024/01/03 01:42:46;;;;;;;0.90;0.70;;;8.00;99.90;;;;;;5038614;28;21189;-73
2024/01/03 01:45:13;;;;;;;0.67;0.57;;;8.00;99.90;;;;;;5047551;28;20632;-73
2024/01/03 01:47:41;;;;;;;0.40;0.40;;;8.10;99.90;;;;;;5049673;27;20913;-73
2024/01/03 01:50:11;;;;;;;1.47;0.83;;;8.10;99.90;;;;;;5056797;27;20622;-72
2024/01/03 01:52:39;;;;;;;1.50;0.60;;;8.10;99.90;;;;;;5035396;28;20691;-73
2024/01/03 01:55:07;;;;;;;1.00;0.70;;;8.20;99.90;;;;;;5044907;27;20639;-73
2024/01/03 01:57:34;;;;;;;0.90;0.80;;;8.20;99.90;;;;;;5038441;27;20638;-73
2024/01/03 02:00:02;;;;;;;0.60;0.37;;;8.20;99.90;;;;;;5029980;28;20209;-73
2024/01/03 02:02:31;;;;;;;0.50;0.40;;;8.20;99.90;;;;;;5044543;28;21236;-72
2024/01/03 02:04:59;;;;;;;1.20;0.50;;;8.20;99.90;;;;;;5030177;28;20209;-72
2024/01/03 02:07:28;;;;;;;0.50;0.30;;;8.20;99.90;;;;;;5061480;28;20645;-73
2024/01/03 02:09:55;;;;;;;1.03;0.83;;;8.20;99.90;;;;;;5045894;28;20637;-73
2024/01/03 02:12:27;;;;;;;0.50;0.30;;;8.20;99.90;;;;;;5055279;28;20766;-73
2024/01/03 02:14:55;;;;;;;1.07;0.40;;;8.10;99.90;;;;;;5038917;28;20796;-73
2024/01/03 02:17:22;;;;;;;0.40;0.30;;;8.10;99.90;;;;;;5054083;28;21055;-73
2024/01/03 02:19:49;;;;;;;0.80;0.40;;;7.90;99.90;;;;;;5052858;28;20776;-73
2024/01/03 02:22:17;;;;;;;2.15;0.40;;;7.90;99.90;;;;;;5058420;28;20287;-73
2024/01/03 02:24:45;;;;;;;0.30;0.20;;;7.80;99.90;;;;;;5050185;28;20200;-73
2024/01/03 02:27:12;;;;;;;0.30;0.20;;;7.90;99.90;;;;;;5045230;28;20630;-73
2024/01/03 02:29:41;;;;;;;0.40;0.30;;;7.90;99.90;;;;;;5046847;28;20550;-73
2024/01/03 02:32:09;;;;;;;0.65;0.30;;;7.80;99.90;;;;;;5041509;28;20315;-73
2024/01/03 02:34:37;;;;;;;0.40;0.20;;;7.90;99.90;;;;;;5041777;28;20317;-73
2024/01/03 02:37:06;;;;;;;0.30;0.20;;;7.90;99.90;;;;;;5048818;28;20633;-73
2024/01/03 02:39:35;;;;;;;0.98;0.30;;;7.90;99.90;;;;;;5046139;28;20627;-73
2024/01/03 02:42:03;;;;;;;0.30;0.20;;;7.80;99.90;;;;;;5043791;28;20642;-73
2024/01/03 02:44:31;;;;;;;0.50;0.32;;;7.80;99.90;;;;;;5045177;27;20623;-73
2024/01/03 02:46:59;;;;;;;0.30;0.20;;;7.80;99.90;;;;;;5042793;28;20219;-73
2024/01/03 02:49:27;;;;;;;0.45;0.28;;;7.80;99.90;;;;;;5047739;27;20773;-72
2024/01/03 02:51:54;;;;;;;0.40;0.20;;;7.90;99.90;;;;;;5038180;27;20263;-73
2024/01/03 02:54:22;;;;;;;0.30;0.20;;;7.80;99.90;;;;;;5039998;28;21189;-73
2024/01/03 02:56:53;;;;;;;0.30;0.20;;;7.80;99.90;;;;;;5040625;28;20650;-73
2024/01/03 02:59:21;;;;;;;0.80;0.40;;;7.90;99.90;;;;;;5039072;27;20635;-73
2024/01/03 03:01:49;;;;;;;0.60;0.30;;;7.80;99.90;;;;;;5038060;28;20642;-73
2024/01/03 03:04:17;;;;;;;0.30;0.20;;;7.80;99.90;;;;;;5033244;28;20634;-73
2024/01/03 03:06:45;;;;;;;1.07;0.43;;;7.80;99.90;;;;;;5048069;28;20633;-73
2024/01/03 03:09:13;;;;;;;1.57;0.40;;;7.80;99.90;;;;;;5058814;28;21154;-73
2024/01/03 03:11:40;;;;;;;0.30;0.20;;;7.90;99.90;;;;;;5037694;28;20680;-73
2024/01/03 03:14:11;;;;;;;0.30;0.20;;;7.90;99.90;;;;;;5052680;28;20638;-73
2024/01/03 03:16:37;;;;;;;0.50;0.50;;;7.80;99.90;;;;;;5052341;28;20635;-73
2024/01/03 03:19:06;;;;;;;0.40;0.23;;;7.80;99.90;;;;;;5057361;28;20690;-73
2024/01/03 03:21:34;;;;;;;0.40;0.30;;;7.80;99.90;;;;;;5046237;28;21029;-74
2024/01/03 03:24:02;;;;;;;0.40;0.30;;;7.70;99.90;;;;;;5054821;28;20682;-73
2024/01/03 03:26:30;;;;;;;1.27;0.50;;;7.70;99.90;;;;;;5055846;27;20642;-73
2024/01/03 03:28:58;;;;;;;0.50;0.37;;;7.70;99.90;;;;;;5081221;27;20646;-73
2024/01/03 03:31:27;;;;;;;0.30;0.20;;;7.70;99.90;;;;;;5074713;27;20665;-73
2024/01/03 03:33:56;;;;;;;0.50;0.40;;;7.70;99.90;;;;;;5078809;27;20643;-73
2024/01/03 03:36:24;;;;;;;0.85;0.45;;;7.60;99.90;;;;;;5076760;27;20633;-73
2024/01/03 03:38:52;;;;;;;0.45;0.28;;;7.70;99.90;;;;;;5069704;27;20217;-73
2024/01/03 03:41:20;;;;;;;0.60;0.47;;;7.70;99.90;;;;;;5066886;27;20283;-73
2024/01/03 03:43:47;;;;;;;0.30;0.27;;;7.60;99.90;;;;;;5051078;28;21258;-73
2024/01/03 03:46:17;;;;;;;0.60;0.30;;;7.60;99.90;;;;;;5050662;28;20631;-73
2024/01/03 03:48:45;;;;;;;0.43;0.40;;;7.60;99.90;;;;;;5047417;28;20631;-73
2024/01/03 03:51:12;;;;;;;0.60;0.50;;;7.60;99.90;;;;;;5040368;28;20672;-73
2024/01/03 03:53:39;;;;;;;0.30;0.30;;;7.60;99.90;;;;;;5045293;28;20202;-73
2024/01/03 03:56:06;;;;;;;0.50;0.50;;;7.60;99.90;;;;;;5055368;28;20632;-73
2024/01/03 03:58:33;;;;;;;0.70;0.40;;;7.50;99.90;;;;;;5048231;27;20645;-73
2024/01/03 04:01:00;;;;;;;1.35;0.70;;;7.50;99.90;;;;;;5056329;28;21073;-74
2024/01/03 04:03:27;;;;;;;0.50;0.40;;;7.50;99.90;;;;;;5055683;28;20648;-73
2024/01/03 04:05:55;;;;;;;0.60;0.40;;;7.40;99.90;;;;;;5048540;28;20620;-73
2024/01/03 04:08:21;;;;;;;0.65;0.43;;;7.40;99.90;;;;;;5042397;28;20670;-73
2024/01/03 04:10:48;;;;;;;0.43;0.43;;;7.50;99.90;;;;;;5038488;28;20294;-73
2024/01/03 04:13:15;;;;;;;0.50;0.50;;;7.50;99.90;;;;;;5045368;28;20630;-73
2024/01/03 04:15:42;;;;;;;0.80;0.70;;;7.50;99.90;;;;;;5039737;28;20623;-73
2024/01/03 04:18:09;;;;;;;0.32;0.30;;;7.50;99.90;;;;;;5043374;28;20619;-73
2024/01/03 04:20:35;;;;;;;2.05;0.50;;;7.50;99.90;;;;;;5043499;28;20662;-73
2024/01/03 04:23:04;;;;;;;0.60;0.55;;;7.50;99.90;;;;;;5042521;28;20209;-73
2024/01/03 04:25:31;;;;;;;0.88;0.45;;;7.40;99.90;;;;;;5036821;28;20307;-73
2024/01/03 04:27:58;;;;;;;0.70;0.70;;;7.40;99.90;;;;;;5042368;28;20208;-73
2024/01/03 04:30:25;;;;;;;13.20;1.20;;;7.40;99.90;;;;;;5037530;28;20199;-73
2024/01/03 04:32:51;;;;;;;1.10;0.73;;;7.40;99.90;;;;;;5046463;28;20233;-73
2024/01/03 04:35:18;;;;;;;1.42;0.40;;;7.40;99.90;;;;;;5055501;28;21027;-73
2024/01/03 04:37:45;;;;;;;0.40;0.40;;;7.20;99.90;;;;;;5049184;28;20195;-73
2024/01/03 04:40:13;;;;;;;1.05;0.65;;;7.30;99.90;;;;;;5057737;28;20212;-73
2024/01/03 04:42:42;;;;;;;0.50;0.45;;;7.30;99.90;;;;;;5050999;28;20217;-73
2024/01/03 04:45:09;;;;;;;0.40;0.40;;;7.30;99.90;;;;;;5052146;28;20204;-73
2024/01/03 04:47:37;;;;;;;0.55;0.45;;;7.30;99.90;;;;;;5055173;28;20839;-73
2024/01/03 04:50:04;;;;;;;1.40;0.55;;;7.30;99.90;;;;;;5061335;27;20645;-73
2024/01/03 04:52:31;;;;;;;0.98;0.55;;;7.20;99.90;;;;;;5060627;27;20249;-72
2024/01/03 04:54:57;;;;;;;0.40;0.30;;;7.10;99.90;;;;;;5057364;28;20200;-73
2024/01/03 04:57:25;;;;;;;0.70;0.60;;;7.20;99.90;;;;;;5050771;28;20199;-73
2024/01/03 04:59:52;;;;;;;0.70;0.70;;;7.20;99.90;;;;;;5056858;27;20212;-73
2024/01/03 05:02:19;;;;;;;0.50;0.50;;;7.20;99.90;;;;;;5045772;28;20682;-73
2024/01/03 05:04:46;;;;;;;1.50;1.05;;;7.20;99.90;;;;;;5043855;28;20203;-73
2024/01/03 05:07:12;;;;;;;1.40;0.30;;;7.20;99.90;;;;;;5056083;28;20206;-73
2024/01/03 05:09:38;;;;;;;0.83;0.80;;;7.10;99.90;;;;;;5046758;27;20196;-73
2024/01/03 05:12:05;;;;;;;1.27;0.77;;;7.10;99.90;;;;;;5046009;28;20666;-73
2024/01/03 05:14:34;;;;;;;0.60;0.40;;;7.20;99.90;;;;;;5049188;27;20611;-73
2024/01/03 05:17:01;;;;;;;0.45;0.45;;;7.10;99.90;;;;;;5040155;28;20212;-73
2024/01/03 05:19:28;;;;;;;2.50;0.85;;;7.20;99.90;;;;;;5042124;28;20195;-72
2024/01/03 05:21:54;;;;;;;0.98;0.77;;;7.20;99.90;;;;;;5035938;28;20209;-72
2024/01/03 05:24:21;;;;;;;0.70;0.70;;;7.30;99.90;;;;;;5039873;28;20200;-72
2024/01/03 05:26:48;;;;;;;0.77;0.60;;;7.20;99.90;;;;;;5034147;28;20212;-72
2024/01/03 05:29:15;;;;;;;0.70;0.50;;;7.20;99.90;;;;;;5046570;27;20294;-72
2024/01/03 05:31:44;;;;;;;1.48;0.50;;;7.40;99.90;;;;;;5037950;28;20224;-72
2024/01/03 05:34:11;;;;;;;0.50;0.40;;;7.50;99.90;;;;;;5045697;28;20857;-73
2024/01/03 05:36:38;;;;;;;0.60;0.35;;;7.60;99.90;;;;;;5049497;28;20913;-73
2024/01/03 05:39:05;;;;;;;0.52;0.30;;;7.70;99.90;;;;;;5048943;28;20202;-73
2024/01/03 05:41:31;;;;;;;0.45;0.40;;;7.80;99.90;;;;;;5050303;28;20249;-73
2024/01/03 05:43:58;;;;;;;0.53;0.53;;;7.80;99.90;;;;;;5050486;28;20604;-73
2024/01/03 05:46:25;;;;;;;2.30;1.25;;;7.80;99.90;;;;;;5051855;28;21091;-73
2024/01/03 05:48:53;;;;;;;1.38;0.60;;;7.80;99.90;;;;;;5036735;28;20263;-73
2024/01/03 05:51:21;;;;;;;0.40;0.40;;;7.80;99.90;;;;;;5040624;28;20214;-73
2024/01/03 05:53:48;;;;;;;0.47;0.47;;;7.80;99.90;;;;;;5044033;28;20354;-73
2024/01/03 05:56:15;;;;;;;1.27;0.40;;;7.80;99.90;;;;;;5046769;28;20203;-72
2024/01/03 05:58:43;;;;;;;0.87;0.60;;;7.80;99.90;;;;;;5051579;28;20640;-72
2024/01/03 06:01:10;;;;;;;0.50;0.47;;;7.90;99.90;;;;;;5049223;28;20632;-73
2024/01/03 06:03:37;;;;;;;0.70;0.70;;;7.90;99.90;;;;;;5049264;28;20665;-73
2024/01/03 06:06:05;;;;;;;2.70;0.80;;;7.90;99.90;;;;;;5051479;28;21070;-73
2024/01/03 06:08:32;;;;;;;5.40;0.70;;;7.90;99.90;;;;;;5035023;28;20634;-73
2024/01/03 06:10:59;;;;;;;3.27;0.63;;;7.80;99.90;;;;;;5046634;28;20636;-73
2024/01/03 06:13:26;;;;;;;0.47;0.30;;;7.90;99.90;;;;;;5044850;28;20672;-73
2024/01/03 06:15:53;;;;;;;0.63;0.53;;;7.90;99.90;;;;;;5040423;28;20645;-74
2024/01/03 06:18:21;;;;;;;0.73;0.53;;;8.00;99.90;;;;;;5041462;28;20674;-76
2024/01/03 06:20:48;;;;;;;6.35;2.50;;;8.00;99.90;;;;;;5038150;27;20674;-76
2024/01/03 06:23:16;;;;;;;0.53;0.50;;;8.00;99.90;;;;;;5043023;28;20193;-74
2024/01/03 06:25:42;;;;;;;0.60;0.60;;;8.00;99.90;;;;;;5033927;28;20636;-78
2024/01/03 06:28:09;;;;;;;2.63;0.60;;;7.90;99.90;;;;;;5035449;28;20734;-77
2024/01/03 06:30:36;;;;;;;0.50;0.30;;;7.90;99.90;;;;;;5035366;28;20634;-77
2024/01/03 06:33:03;;;;;;;0.60;0.60;;;7.80;99.90;;;;;;5039742;27;20679;-76
2024/01/03 06:35:32;;;;;;;0.73;0.43;;;7.80;99.90;;;;;;5038667;28;20707;-76
2024/01/03 06:37:59;;;;;;;1.10;1.10;;;7.80;99.90;;;;;;5035286;28;20609;-76
2024/01/03 06:40:27;;;;;;;1.30;0.70;;;7.80;99.90;;;;;;5041057;28;20725;-77
2024/01/03 06:42:54;;;;;;;1.17;1.17;;;7.80;99.90;;;;;;5052646;28;20630;-75
2024/01/03 06:45:21;;;;;;;0.50;0.50;;;7.70;99.90;;;;;;5055346;27;20633;-76
2024/01/03 06:47:48;;;;;;;3.00;0.67;;;7.70;99.90;;;;;;5054140;28;20645;-76
2024/01/03 06:50:15;;;;;;;0.50;0.40;;;7.70;99.90;;;;;;5039014;28;20619;-75
2024/01/03 06:52:42;;;;;;;0.85;0.45;;;7.70;99.90;;;;;;5047748;28;20761;-76
2024/01/03 06:55:09;;;;;;;0.30;0.20;;;7.60;99.90;;;;;;5047657;28;20720;-76
2024/01/03 06:57:37;;;;;;;0.77;0.50;;;7.70;99.90;;;;;;5052778;27;20723;-76
2024/01/03 07:00:05;;;;;;;0.50;0.50;;;7.70;99.90;;;;;;5051528;28;20662;-75
2024/01/03 07:02:32;;;;;;;3.27;0.43;;;7.70;99.90;;;;;;5044955;27;20690;-76
2024/01/03 07:04:58;;;;;;;1.17;0.50;;;7.70;99.90;;;;;;5046998;28;21178;-76
2024/01/03 07:07:25;;;;;;;0.33;0.20;;;7.70;99.90;;;;;;5047346;28;20630;-75
2024/01/03 07:09:52;;;;;;;3.03;1.80;;;7.80;99.90;;;;;;5035659;28;20631;-77
2024/01/03 07:12:19;;;;;;;2.67;0.30;;;7.80;99.90;;;;;;5043340;27;20665;-77
2024/01/03 07:14:48;;;;;;;1.17;0.60;;;7.80;99.90;;;;;;5042642;28;20627;-77
2024/01/03 07:17:15;;;;;;;1.00;0.53;;;7.90;99.90;;;;;;5040260;27;20634;-77
2024/01/03 07:19:42;;;;;;;1.13;0.40;;;7.90;99.90;;;;;;5035260;28;21239;-77
2024/01/03 07:22:08;;;;;;;0.50;0.20;;;7.90;99.90;;;;;;5036496;28;20737;-77
2024/01/03 07:24:36;;;;;;;2.53;1.03;;;7.90;99.90;;;;;;5043975;28;21186;-77
2024/01/03 07:27:04;;;;;;;0.63;0.40;;;7.90;99.90;;;;;;5043941;27;20683;-77
2024/01/03 07:29:30;;;;;;;4.00;0.60;;;8.00;99.90;;;;;;5027284;27;20662;-77
2024/01/03 07:31:59;;;;;;;0.40;0.40;;;8.10;99.90;;;;;;5037994;27;20728;-77
2024/01/03 07:34:26;;;;;;;1.07;0.47;;;8.00;99.90;;;;;;5051221;28;20722;-77
2024/01/03 07:36:53;;;;;;;0.83;0.40;;;8.00;99.90;;;;;;5057676;28;20982;-77
2024/01/03 07:39:20;;;;;;;0.40;0.40;;;8.00;99.90;;;;;;5053199;28;20725;-77
2024/01/03 07:41:47;;;;;;;0.40;0.40;;;8.00;99.90;;;;;;5047515;27;20629;-77
2024/01/03 07:44:13;;;;;;;0.73;0.50;;;8.00;99.90;;;;;;5058726;27;20719;-77
2024/01/03 07:46:40;;;;;;;1.93;0.67;;;8.10;99.90;;;;;;5046762;28;21030;-77
2024/01/03 07:49:10;;;;;;;0.80;0.57;;;8.00;99.90;;;;;;5049318;28;20633;-77
2024/01/03 07:51:38;;;;;;;0.97;0.70;;;7.90;99.90;;;;;;5043222;27;20651;-77
2024/01/03 07:54:07;;;;;;;5.30;0.70;;;7.90;99.90;;;;;;5041284;27;20711;-77
2024/01/03 07:56:34;;;;;;;0.90;0.30;;;8.00;99.90;;;;;;5054897;27;20626;-77
2024/01/03 07:59:00;;;;;;;1.13;0.67;;;7.90;99.90;;;;;;5047881;27;20984;-77
2024/01/03 08:01:27;;;;;;;8.03;1.03;;;7.90;99.90;;;;;;5036089;28;20736;-77
2024/01/03 08:03:55;;;;;;;0.47;0.27;;;7.90;99.90;;;;;;5039636;28;20636;-77
2024/01/03 08:06:23;;;;;;;0.40;0.20;;;7.90;99.90;;;;;;5045186;27;20622;-77
2024/01/03 08:08:50;;;;;;;1.60;0.33;;;7.90;99.90;;;;;;5041321;28;20730;-77
2024/01/03 08:11:17;;;;;;;1.07;0.97;;;8.00;99.90;;;;;;5032979;28;20621;-76
2024/01/03 08:13:43;;;;;;;1.53;0.97;;;8.00;99.90;;;;;;5048039;28;20777;-76
2024/01/03 08:16:11;;;;;;;1.13;0.83;;;8.20;99.90;;;;;;5042860;28;20972;-77
2024/01/03 08:18:39;;;;;;;0.87;0.47;;;8.30;99.90;;;;;;5037191;28;20624;-77
2024/01/03 08:21:06;;;;;;;3.63;0.77;;;8.30;99.90;;;;;;5027449;27;20639;-76
2024/01/03 08:23:34;;;;;;;0.70;0.53;;;8.40;99.90;;;;;;5038986;28;20636;-78
2024/01/03 08:26:00;;;;;;;2.33;0.70;;;8.50;99.90;;;;;;5034227;28;21058;-77
2024/01/03 08:28:27;;;;;;;0.33;0.33;;;8.50;99.90;;;;;;5035245;28;20633;-77
2024/01/03 08:30:54;;;;;;;0.83;0.83;;;8.60;99.90;;;;;;5034846;28;20983;-76
2024/01/03 08:33:21;;;;;;;0.80;0.80;;;8.60;99.90;;;;;;5051902;28;20676;-77
2024/01/03 08:35:47;;;;;;;2.73;0.57;;;8.70;99.90;;;;;;5048562;28;20630;-77
2024/01/03 08:38:14;;;;;;;1.80;0.63;;;8.80;99.90;;;;;;5041632;28;20631;-77
2024/01/03 08:40:42;;;;;;;0.93;0.50;;;8.80;99.90;;;;;;5048828;28;20629;-77
2024/01/03 08:43:09;;;;;;;0.73;0.57;;;8.90;99.90;;;;;;5050535;28;20626;-78
2024/01/03 08:45:36;;;;;;;1.73;0.73;;;8.90;99.90;;;;;;5057707;28;20629;-77
2024/01/03 08:48:03;;;;;;;1.10;0.73;;;8.90;99.90;;;;;;5055435;28;20638;-76
2024/01/03 08:50:30;;;;;;;0.73;0.50;;;8.90;99.90;;;;;;5042154;28;20630;-77
2024/01/03 08:52:56;;;;;;;2.07;1.10;;;8.90;99.90;;;;;;5046108;28;21003;-76
2024/01/03 08:55:23;;;;;;;0.40;0.30;;;8.90;99.90;;;;;;5049472;28;20729;-77
2024/01/03 08:57:56;;;;;;;2.30;0.80;;;9.00;99.90;;;;;;5054004;28;20632;-78
2024/01/03 09:00:23;;;;;;;2.40;1.20;;;8.90;99.90;;;;;;5049917;27;20707;-78
2024/01/03 09:02:50;;;;;;;0.50;0.30;;;8.80;99.90;;;;;;5052008;28;20626;-78
2024/01/03 09:05:18;;;;;;;1.00;0.40;;;8.80;99.90;;;;;;5050476;28;20625;-78
2024/01/03 09:07:45;;;;;;;0.83;0.60;;;8.80;99.90;;;;;;5037205;27;21189;-78
2024/01/03 09:10:12;;;;;;;1.33;0.40;;;8.70;99.90;;;;;;5046498;28;20731;-77
2024/01/03 09:12:39;;;;;;;0.70;0.37;;;8.70;99.90;;;;;;5041308;27;20658;-78
2024/01/03 09:15:09;;;;;;;0.40;0.40;;;8.80;99.90;;;;;;5038380;28;21021;-78
2024/01/03 09:17:35;;;;;;;1.67;0.60;;;8.90;99.90;;;;;;5040374;27;20726;-78
2024/01/03 09:20:02;;;;;;;0.40;0.40;;;9.10;99.90;;;;;;5040509;28;20630;-78
2024/01/03 09:22:29;;;;;;;0.90;0.20;;;9.10;99.90;;;;;;5032688;28;20632;-78
2024/01/03 09:24:56;;;;;;;0.50;0.47;;;9.20;99.90;;;;;;5046264;28;20640;-78
2024/01/03 09:27:23;;;;;;;2.50;0.50;;;9.20;99.90;;;;;;5036839;27;20656;-78
2024/01/03 09:29:50;;;;;;;0.75;0.43;;;9.20;99.90;;;;;;5031505;27;20751;-78
2024/01/03 09:32:18;;;;;;;1.03;0.40;;;9.20;99.90;;;;;;5037585;28;20203;-78
2024/01/03 09:34:45;;;;;;;0.30;0.30;;;9.40;99.90;;;;;;5058610;28;20669;-78
2024/01/03 09:37:12;;;;;;;1.70;0.40;;;9.40;99.90;;;;;;5052493;28;21013;-78
2024/01/03 09:39:38;;;;;;;2.17;0.77;;;9.50;99.90;;;;;;5053572;27;20734;-78
2024/01/03 09:42:06;;;;;;;1.33;0.63;;;9.50;99.90;;;;;;5045775;28;20622;-78
2024/01/03 09:44:34;;;;;;;0.77;0.40;;;9.50;99.90;;;;;;5044063;28;20633;-78
2024/01/03 09:47:01;;;;;;;0.77;0.37;;;9.40;99.90;;;;;;5054999;28;21371;-77
2024/01/03 09:49:29;;;;;;;1.10;0.50;;;9.50;99.90;;;;;;5039840;28;20642;-78
2024/01/03 09:51:57;;;;;;;1.57;0.67;;;9.50;99.90;;;;;;5045583;28;20618;-78
2024/01/03 09:54:24;;;;;;;1.57;0.50;;;9.40;99.90;;;;;;5041548;28;21025;-78
2024/01/03 09:56:52;;;;;;;0.30;0.30;;;9.50;99.90;;;;;;5043647;28;20633;-78
2024/01/03 09:59:21;;;;;;;0.60;0.50;;;9.50;99.90;;;;;;5048655;27;20633;-78
2024/01/03 10:01:58;;;;;;;1.10;0.53;;;9.40;99.90;;;;;;5053007;28;20635;-78
2024/01/03 10:04:25;;;;;;;1.90;0.50;;;9.50;99.90;;;;;;5033566;28;20779;-75
2024/01/03 10:06:54;;;;;;;0.70;0.40;;;9.50;99.90;;;;;;5051554;28;21049;-76
2024/01/03 10:09:21;;;;;;;1.33;0.70;;;9.50;99.90;;;;;;5042260;27;20618;-77
2024/01/03 10:11:51;;;;;;;1.53;0.83;;;9.40;99.90;;;;;;5041699;28;20634;-77
2024/01/03 10:14:19;;;;;;;0.53;0.53;;;9.40;99.90;;;;;;5045981;28;20682;-77
2024/01/03 10:16:47;;;;;;;0.57;0.33;;;9.30;99.90;;;;;;5043505;28;20626;-77
2024/01/03 10:19:16;;;;;;;1.23;0.33;;;9.30;99.90;;;;;;5046900;27;20635;-77
2024/01/03 10:21:50;;;;;;;1.70;0.60;;;9.20;99.90;;;;;;5038750;28;20634;-76
2024/01/03 10:24:19;;;;;;;0.60;0.57;;;9.20;99.90;;;;;;5041513;27;20634;-77
2024/01/03 10:26:46;;;;;;;0.83;0.80;;;9.20;99.90;;;;;;5035300;28;20641;-78
2024/01/03 10:29:14;;;;;;;1.57;0.90;;;9.20;99.90;;;;;;5033144;28;20632;-77
2024/01/03 10:31:42;;;;;;;0.60;0.50;;;9.20;99.90;;;;;;5032400;28;20722;-77
2024/01/03 10:34:12;;;;;;;2.87;0.90;;;9.20;99.90;;;;;;5051182;27;20665;-77
2024/01/03 10:36:40;;;;;;;1.57;0.73;;;9.20;99.90;;;;;;5051381;28;20901;-77
2024/01/03 10:39:10;;;;;;;1.17;0.40;;;9.30;99.90;;;;;;5055041;28;20634;-77
2024/01/03 10:41:39;;;;;;;7.40;0.80;;;9.20;99.90;;;;;;5048187;28;20629;-77
2024/01/03 10:44:07;;;;;;;0.70;0.50;;;9.20;99.90;;;;;;5050500;28;20624;-77
2024/01/03 10:46:33;;;;;;;0.50;0.30;;;9.30;99.90;;;;;;5052644;28;20721;-77
2024/01/03 10:49:01;;;;;;;0.77;0.60;;;9.50;99.90;;;;;;5043301;27;21077;-77
2024/01/03 10:51:33;;;;;;;0.53;0.50;;;9.50;99.90;;;;;;5046939;28;20630;-77
2024/01/03 10:54:02;;;;;;;0.97;0.50;;;9.40;99.90;;;;;;5054749;28;20664;-76
2024/01/03 10:56:31;;;;;;;0.60;0.60;;;9.40;99.90;;;;;;5050728;27;20967;-76
2024/01/03 10:59:00;;;;;;;0.30;0.20;;;9.50;99.90;;;;;;5040203;28;20641;-77
2024/01/03 11:01:30;;;;;;;0.67;0.50;;;9.50;99.90;;;;;;5049241;27;20651;-77
2024/01/03 11:04:07;;;;;;;1.37;0.83;;;9.60;99.90;;;;;;5044287;28;20650;-77
2024/01/03 11:06:42;;;;;;;1.50;0.50;;;9.80;99.90;;;;;;5049831;27;21036;-78
2024/01/03 11:09:09;;;;;;;1.33;0.87;;;9.80;99.90;;;;;;5086665;27;20623;-77
2024/01/03 11:11:38;;;;;;;0.83;0.50;;;9.90;99.90;;;;;;5048577;27;21150;-77
2024/01/03 11:14:23;;;;;;;0.70;0.50;;;9.90;99.90;;;;;;5048334;27;21309;-77
2024/01/03 11:16:50;;;;;;;0.50;0.40;;;9.90;99.90;;;;;;5042662;28;20626;-78
2024/01/03 11:19:27;;;;;;;1.17;0.90;;;9.80;99.90;;;;;;5048654;28;20729;-76
2024/01/03 11:21:54;;;;;;;0.40;0.40;;;9.80;99.90;;;;;;5052457;27;20633;-77
2024/01/03 11:24:43;;;;;;;0.60;0.30;;;9.80;99.90;;;;;;5066469;27;20639;-77
2024/01/03 11:27:19;;;;;;;0.40;0.30;;;9.90;99.90;;;;;;5045366;28;20781;-77
2024/01/03 11:29:48;;;;;;;0.40;0.23;;;10.10;99.90;;;;;;5044902;27;20623;-77
2024/01/03 11:32:16;;;;;;;0.57;0.40;;;10.20;99.90;;;;;;5042405;28;20635;-77
2024/01/03 11:34:44;;;;;;;0.40;0.30;;;10.00;99.90;;;;;;5047275;27;20675;-78
2024/01/03 11:37:32;;;;;;;0.30;0.20;;;10.00;99.90;;;;;;5062322;28;20633;-79
2024/01/03 11:39:59;;;;;;;0.43;0.43;;;9.90;99.90;;;;;;5050350;28;20745;-77
2024/01/03 11:42:30;;;;;;;0.40;0.30;;;9.90;99.90;;;;;;5039117;28;20634;-75
2024/01/03 11:45:04;;;;;;;0.40;0.20;;;9.80;99.90;;;;;;5043351;28;20747;-77
2024/01/03 11:47:32;;;;;;;0.40;0.30;;;9.80;99.90;;;;;;5054146;28;20731;-77
2024/01/03 11:50:01;;;;;;;0.60;0.47;;;9.80;99.90;;;;;;5037820;28;20636;-76
2024/01/03 11:52:28;;;;;;;0.70;0.50;;;9.90;99.90;;;;;;5049622;27;20633;-77
2024/01/03 11:55:05;;;;;;;1.30;0.40;;;9.90;99.90;;;;;;5053371;28;21244;-77
2024/01/03 11:57:32;;;;;;;0.40;0.23;;;9.90;99.90;;;;;;5047816;27;21111;-76
2024/01/03 12:00:01;;;;;;;0.97;0.53;;;9.90;99.90;;;;;;5044958;28;20734;-76
2024/01/03 12:02:28;;;;;;;0.70;0.50;;;9.90;99.90;;;;;;5049351;28;20664;-77
2024/01/03 12:05:02;;;;;;;1.33;0.50;;;9.90;99.90;;;;;;5051774;28;20637;-77
2024/01/03 12:07:30;;;;;;;1.00;0.57;;;9.90;99.90;;;;;;5051650;27;20626;-77
2024/01/03 12:09:58;;;;;;;3.10;0.80;;;9.90;99.90;;;;;;5043744;28;20631;-77
2024/01/03 12:12:25;;;;;;;0.47;0.47;;;10.00;99.90;;;;;;5051351;28;20627;-77
2024/01/03 12:14:53;;;;;;;0.40;0.30;;;10.10;99.90;;;;;;5044932;28;20688;-77
2024/01/03 12:17:31;;;;;;;0.50;0.40;;;10.20;99.90;;;;;;5052287;28;20616;-78
2024/01/03 12:20:08;;;;;;;1.30;0.40;;;10.20;99.90;;;;;;5050668;28;20730;-76
2024/01/03 12:22:36;;;;;;;0.53;0.53;;;10.20;99.90;;;;;;5047655;28;20655;-78
2024/01/03 12:25:03;;;;;;;0.60;0.40;;;10.20;99.90;;;;;;5048778;28;20625;-78
2024/01/03 12:27:32;;;;;;;0.50;0.40;;;10.20;99.90;;;;;;5040430;27;20635;-77
2024/01/03 12:30:17;;;;;;;0.40;0.40;;;10.10;99.90;;;;;;5047494;28;21163;-78
2024/01/03 12:32:46;;;;;;;0.30;0.20;;;10.10;99.90;;;;;;5038115;27;20662;-77
2024/01/03 12:35:14;;;;;;;2.20;0.50;;;10.10;99.90;;;;;;5055988;27;20793;-77
2024/01/03 12:37:46;;;;;;;0.40;0.20;;;10.10;99.90;;;;;;5048336;28;20627;-76
2024/01/03 12:40:15;;;;;;;0.50;0.40;;;10.00;99.90;;;;;;5035297;28;20746;-76
2024/01/03 12:42:42;;;;;;;2.43;0.40;;;9.90;99.90;;;;;;5058258;28;20624;-76
2024/01/03 12:45:10;;;;;;;2.27;0.40;;;10.00;99.90;;;;;;5057888;28;20634;-77
2024/01/03 12:47:37;;;;;;;2.13;0.23;;;10.00;99.90;;;;;;5052020;28;20644;-76
2024/01/03 12:50:07;;;;;;;0.97;0.40;;;10.20;99.90;;;;;;5041793;28;20626;-76
2024/01/03 12:52:35;;;;;;;0.60;0.50;;;10.20;99.90;;;;;;5048784;28;20637;-77
2024/01/03 12:55:02;;;;;;;0.80;0.60;;;10.20;99.90;;;;;;5040950;28;20693;-76
2024/01/03 12:57:29;;;;;;;1.03;0.83;;;10.10;99.90;;;;;;5040645;28;21255;-76
2024/01/03 12:59:58;;;;;;;1.17;0.47;;;10.00;99.90;;;;;;5046017;28;20707;-76